sensor_id;sensor_type;location;lat;lon;timestamp;pressure;altitude;pressure_sealevel;temperature;humidity
39789;BME280;25478;42.626;23.320;2022-09-23T00:01:08;93300.75;;;7.70;81.64
39789;BME280;25478;42.626;23.320;2022-09-23T00:03:35;93300.63;;;7.62;81.10
39789;BME280;25478;42.626;23.320;2022-09-23T00:06:05;93298.31;;;7.57;81.38
39789;BME280;25478;42.626;23.320;2022-09-23T00:08:31;93297.78;;;7.48;80.55
39789;BME280;25478;42.626;23.320;2022-09-23T00:10:58;93300.19;;;7.38;81.04
39789;BME280;25478;42.626;23.320;2022-09-23T00:13:27;93292.56;;;7.29;81.77
39789;BME280;25478;42.626;23.320;2022-09-23T00:15:53;93268.94;;;7.06;81.63
39789;BME280;25478;42.626;23.320;2022-09-23T00:18:18;93301.34;;;7.17;81.77
39789;BME280;25478;42.626;23.320;2022-09-23T00:20:45;93266.50;;;6.94;81.83
39789;BME280;25478;42.626;23.320;2022-09-23T00:23:12;93284.75;;;7.10;82.62
39789;BME280;25478;42.626;23.320;2022-09-23T00:25:38;93284.88;;;6.97;81.99
39789;BME280;25478;42.626;23.320;2022-09-23T00:28:03;93272.34;;;6.87;82.03
39789;BME280;25478;42.626;23.320;2022-09-23T00:30:28;93289.63;;;6.92;82.39
39789;BME280;25478;42.626;23.320;2022-09-23T00:32:55;93290.25;;;6.85;81.96
39789;BME280;25478;42.626;23.320;2022-09-23T00:35:21;93272.00;;;6.69;82.60
39789;BME280;25478;42.626;23.320;2022-09-23T00:37:47;93289.09;;;6.83;82.42
39789;BME280;25478;42.626;23.320;2022-09-23T00:40:12;93296.19;;;6.82;83.09
39789;BME280;25478;42.626;23.320;2022-09-23T00:42:45;93295.13;;;6.87;82.97
39789;BME280;25478;42.626;23.320;2022-09-23T00:45:11;93290.66;;;6.87;82.64
39789;BME280;25478;42.626;23.320;2022-09-23T00:47:52;93291.84;;;6.90;82.99
39789;BME280;25478;42.626;23.320;2022-09-23T00:52:55;93292.25;;;6.92;83.67
39789;BME280;25478;42.626;23.320;2022-09-23T00:55:26;93291.16;;;6.93;84.03
39789;BME280;25478;42.626;23.320;2022-09-23T00:57:57;93267.25;;;6.75;83.29
39789;BME280;25478;42.626;23.320;2022-09-23T01:00:23;93285.44;;;6.87;82.75
39789;BME280;25478;42.626;23.320;2022-09-23T01:02:49;93266.72;;;6.66;81.46
39789;BME280;25478;42.626;23.320;2022-09-23T01:05:15;93294.19;;;6.75;81.71
39789;BME280;25478;42.626;23.320;2022-09-23T01:07:42;93272.47;;;6.56;82.01
39789;BME280;25478;42.626;23.320;2022-09-23T01:10:09;93282.59;;;6.57;82.21
39789;BME280;25478;42.626;23.320;2022-09-23T01:15:43;93290.16;;;6.62;82.87
39789;BME280;25478;42.626;23.320;2022-09-23T01:18:18;93289.41;;;6.62;82.77
39789;BME280;25478;42.626;23.320;2022-09-23T01:21:00;93292.16;;;6.69;82.88
39789;BME280;25478;42.626;23.320;2022-09-23T01:35:12;93269.19;;;6.59;83.93
39789;BME280;25478;42.626;23.320;2022-09-23T01:37:45;93294.16;;;6.56;83.93
39789;BME280;25478;42.626;23.320;2022-09-23T01:40:20;93292.72;;;6.59;84.41
39789;BME280;25478;42.626;23.320;2022-09-23T01:42:56;93296.44;;;6.58;84.44
39789;BME280;25478;42.626;23.320;2022-09-23T01:48:01;93298.34;;;6.41;84.77
39789;BME280;25478;42.626;23.320;2022-09-23T01:50:35;93301.22;;;6.36;84.66
39789;BME280;25478;42.626;23.320;2022-09-23T01:56:02;93299.72;;;6.19;84.48
39789;BME280;25478;42.626;23.320;2022-09-23T01:58:37;93296.94;;;6.12;84.13
39789;BME280;25478;42.626;23.320;2022-09-23T02:01:04;93301.44;;;5.96;84.25
39789;BME280;25478;42.626;23.320;2022-09-23T02:03:35;93271.16;;;5.79;84.49
39789;BME280;25478;42.626;23.320;2022-09-23T02:06:18;93278.75;;;5.84;85.04
39789;BME280;25478;42.626;23.320;2022-09-23T02:08:58;93297.22;;;5.91;84.44
39789;BME280;25478;42.626;23.320;2022-09-23T02:11:25;93288.78;;;5.82;84.69
39789;BME280;25478;42.626;23.320;2022-09-23T02:13:55;93291.63;;;5.77;84.74
39789;BME280;25478;42.626;23.320;2022-09-23T02:16:30;93286.75;;;5.76;85.05
39789;BME280;25478;42.626;23.320;2022-09-23T02:19:03;93287.44;;;5.73;84.92
39789;BME280;25478;42.626;23.320;2022-09-23T02:21:34;93280.44;;;5.77;85.64
39789;BME280;25478;42.626;23.320;2022-09-23T02:24:10;93268.53;;;5.79;84.97
39789;BME280;25478;42.626;23.320;2022-09-23T02:26:48;93278.75;;;6.00;85.38
39789;BME280;25478;42.626;23.320;2022-09-23T02:29:24;93285.91;;;6.03;85.61
39789;BME280;25478;42.626;23.320;2022-09-23T02:31:56;93279.53;;;6.01;85.72
39789;BME280;25478;42.626;23.320;2022-09-23T02:37:18;93255.56;;;5.83;86.27
39789;BME280;25478;42.626;23.320;2022-09-23T02:42:42;93280.53;;;5.96;87.32
39789;BME280;25478;42.626;23.320;2022-09-23T02:45:10;93285.25;;;5.90;87.72
39789;BME280;25478;42.626;23.320;2022-09-23T02:47:37;93282.97;;;5.89;88.44
39789;BME280;25478;42.626;23.320;2022-09-23T02:50:04;93287.88;;;5.90;88.45
39789;BME280;25478;42.626;23.320;2022-09-23T02:52:31;93287.09;;;5.90;88.25
39789;BME280;25478;42.626;23.320;2022-09-23T02:54:57;93298.34;;;5.90;88.79
39789;BME280;25478;42.626;23.320;2022-09-23T02:57:25;93293.41;;;5.89;89.07
39789;BME280;25478;42.626;23.320;2022-09-23T02:59:50;93300.81;;;5.87;89.24
39789;BME280;25478;42.626;23.320;2022-09-23T03:10:33;93305.59;;;5.97;88.27
39789;BME280;25478;42.626;23.320;2022-09-23T03:15:44;93294.91;;;6.21;87.37
39789;BME280;25478;42.626;23.320;2022-09-23T03:23:58;93286.13;;;6.30;87.23
39789;BME280;25478;42.626;23.320;2022-09-23T03:26:30;93292.44;;;6.29;86.92
39789;BME280;25478;42.626;23.320;2022-09-23T03:29:01;93287.91;;;6.26;86.67
39789;BME280;25478;42.626;23.320;2022-09-23T03:31:27;93291.97;;;6.23;87.11
39789;BME280;25478;42.626;23.320;2022-09-23T03:33:57;93294.44;;;6.16;87.27
39789;BME280;25478;42.626;23.320;2022-09-23T03:36:28;93291.06;;;6.15;87.37
39789;BME280;25478;42.626;23.320;2022-09-23T03:42:03;93294.25;;;6.09;88.19
39789;BME280;25478;42.626;23.320;2022-09-23T03:44:33;93296.88;;;6.09;88.81
39789;BME280;25478;42.626;23.320;2022-09-23T03:47:02;93298.31;;;6.06;88.81
39789;BME280;25478;42.626;23.320;2022-09-23T03:49:32;93300.09;;;6.02;88.44
39789;BME280;25478;42.626;23.320;2022-09-23T03:51:59;93304.78;;;5.97;87.99
39789;BME280;25478;42.626;23.320;2022-09-23T03:54:25;93279.34;;;5.78;88.09
39789;BME280;25478;42.626;23.320;2022-09-23T03:56:55;93300.81;;;5.87;88.02
39789;BME280;25478;42.626;23.320;2022-09-23T03:59:23;93309.69;;;5.82;87.69
39789;BME280;25478;42.626;23.320;2022-09-23T04:01:49;93297.78;;;5.69;87.61
39789;BME280;25478;42.626;23.320;2022-09-23T04:04:14;93302.59;;;5.67;87.35
39789;BME280;25478;42.626;23.320;2022-09-23T04:06:40;93313.72;;;5.64;87.58
39789;BME280;25478;42.626;23.320;2022-09-23T04:09:06;93311.69;;;5.57;87.42
39789;BME280;25478;42.626;23.320;2022-09-23T04:11:32;93309.31;;;5.52;87.74
39789;BME280;25478;42.626;23.320;2022-09-23T04:13:58;93318.94;;;5.48;87.59
39789;BME280;25478;42.626;23.320;2022-09-23T04:16:23;93328.09;;;5.42;88.24
39789;BME280;25478;42.626;23.320;2022-09-23T04:18:49;93317.88;;;5.37;87.99
39789;BME280;25478;42.626;23.320;2022-09-23T04:21:15;93287.47;;;5.13;87.97
39789;BME280;25478;42.626;23.320;2022-09-23T04:23:41;93319.56;;;5.29;87.95
39789;BME280;25478;42.626;23.320;2022-09-23T04:26:07;93323.19;;;5.25;87.76
39789;BME280;25478;42.626;23.320;2022-09-23T04:28:32;93321.56;;;5.20;88.56
39789;BME280;25478;42.626;23.320;2022-09-23T04:30:58;93335.69;;;5.19;88.36
39789;BME280;25478;42.626;23.320;2022-09-23T04:33:27;93342.00;;;5.18;88.91
39789;BME280;25478;42.626;23.320;2022-09-23T04:35:54;93340.91;;;5.19;88.32
39789;BME280;25478;42.626;23.320;2022-09-23T04:38:19;93347.22;;;5.18;88.76
39789;BME280;25478;42.626;23.320;2022-09-23T04:40:46;93344.63;;;5.18;88.94
39789;BME280;25478;42.626;23.320;2022-09-23T04:43:13;93349.84;;;5.18;88.86
39789;BME280;25478;42.626;23.320;2022-09-23T04:45:43;93359.53;;;5.18;89.19
39789;BME280;25478;42.626;23.320;2022-09-23T04:48:10;93359.19;;;5.19;89.28
39789;BME280;25478;42.626;23.320;2022-09-23T04:50:36;93340.56;;;5.05;89.27
39789;BME280;25478;42.626;23.320;2022-09-23T04:53:03;93365.84;;;5.17;89.75
39789;BME280;25478;42.626;23.320;2022-09-23T04:55:29;93359.53;;;5.18;90.62
39789;BME280;25478;42.626;23.320;2022-09-23T04:57:54;93361.91;;;5.23;90.44
39789;BME280;25478;42.626;23.320;2022-09-23T05:00:20;93359.38;;;5.26;90.18
39789;BME280;25478;42.626;23.320;2022-09-23T05:02:48;93337.81;;;5.14;90.25
39789;BME280;25478;42.626;23.320;2022-09-23T05:05:15;93357.63;;;5.30;91.17
39789;BME280;25478;42.626;23.320;2022-09-23T05:07:46;93355.44;;;5.32;91.30
39789;BME280;25478;42.626;23.320;2022-09-23T05:10:13;93342.72;;;5.31;90.99
39789;BME280;25478;42.626;23.320;2022-09-23T05:12:39;93359.91;;;5.32;91.92
39789;BME280;25478;42.626;23.320;2022-09-23T05:15:04;93354.78;;;5.35;92.62
39789;BME280;25478;42.626;23.320;2022-09-23T05:17:30;93347.81;;;5.40;92.67
39789;BME280;25478;42.626;23.320;2022-09-23T05:19:57;93359.50;;;5.46;93.38
39789;BME280;25478;42.626;23.320;2022-09-23T05:22:23;93353.47;;;5.57;93.51
39789;BME280;25478;42.626;23.320;2022-09-23T05:24:51;93355.94;;;5.66;93.62
39789;BME280;25478;42.626;23.320;2022-09-23T05:27:18;93359.91;;;5.76;93.66
39789;BME280;25478;42.626;23.320;2022-09-23T05:29:44;93351.00;;;5.92;92.82
39789;BME280;25478;42.626;23.320;2022-09-23T05:32:10;93357.06;;;6.12;93.22
39789;BME280;25478;42.626;23.320;2022-09-23T05:34:35;93337.47;;;6.22;92.08
39789;BME280;25478;42.626;23.320;2022-09-23T05:37:01;93353.81;;;6.51;90.95
39789;BME280;25478;42.626;23.320;2022-09-23T05:39:27;93353.69;;;6.63;90.41
39789;BME280;25478;42.626;23.320;2022-09-23T05:41:53;93357.78;;;6.80;89.52
39789;BME280;25478;42.626;23.320;2022-09-23T05:44:19;93353.41;;;7.03;87.90
39789;BME280;25478;42.626;23.320;2022-09-23T05:46:45;93353.84;;;7.24;87.66
39789;BME280;25478;42.626;23.320;2022-09-23T05:49:10;93350.50;;;7.47;86.86
39789;BME280;25478;42.626;23.320;2022-09-23T05:51:36;93352.03;;;7.71;85.40
39789;BME280;25478;42.626;23.320;2022-09-23T05:54:03;93351.94;;;7.86;84.77
39789;BME280;25478;42.626;23.320;2022-09-23T05:56:31;93348.63;;;8.12;83.57
39789;BME280;25478;42.626;23.320;2022-09-23T05:58:58;93343.09;;;8.17;83.13
39789;BME280;25478;42.626;23.320;2022-09-23T06:01:29;93357.03;;;8.48;82.40
39789;BME280;25478;42.626;23.320;2022-09-23T06:03:58;93353.97;;;8.69;81.27
39789;BME280;25478;42.626;23.320;2022-09-23T06:06:50;93338.25;;;8.72;80.90
39789;BME280;25478;42.626;23.320;2022-09-23T06:09:17;93346.19;;;9.06;80.31
39789;BME280;25478;42.626;23.320;2022-09-23T06:11:42;93349.78;;;9.24;78.72
39789;BME280;25478;42.626;23.320;2022-09-23T06:14:11;93351.06;;;9.38;78.86
39789;BME280;25478;42.626;23.320;2022-09-23T06:16:37;93339.53;;;9.46;77.68
39789;BME280;25478;42.626;23.320;2022-09-23T06:19:02;93355.94;;;9.73;77.80
39789;BME280;25478;42.626;23.320;2022-09-23T06:21:33;93359.84;;;9.90;75.90
39789;BME280;25478;42.626;23.320;2022-09-23T06:23:59;93362.56;;;9.97;74.51
39789;BME280;25478;42.626;23.320;2022-09-23T06:26:25;93343.22;;;9.78;73.86
39789;BME280;25478;42.626;23.320;2022-09-23T06:28:51;93346.69;;;9.86;73.56
39789;BME280;25478;42.626;23.320;2022-09-23T06:31:16;93358.47;;;10.03;72.70
39789;BME280;25478;42.626;23.320;2022-09-23T06:33:43;93356.16;;;9.98;72.24
39789;BME280;25478;42.626;23.320;2022-09-23T06:36:10;93345.66;;;9.98;71.64
39789;BME280;25478;42.626;23.320;2022-09-23T06:38:42;93322.28;;;9.89;71.38
39789;BME280;25478;42.626;23.320;2022-09-23T06:41:13;93350.66;;;10.10;71.61
39789;BME280;25478;42.626;23.320;2022-09-23T06:43:39;93339.47;;;10.20;70.49
39789;BME280;25478;42.626;23.320;2022-09-23T06:46:06;93334.50;;;10.11;69.81
39789;BME280;25478;42.626;23.320;2022-09-23T06:48:33;93350.44;;;10.26;70.23
39789;BME280;25478;42.626;23.320;2022-09-23T06:51:00;93348.16;;;10.24;69.12
39789;BME280;25478;42.626;23.320;2022-09-23T06:53:30;93362.72;;;10.14;69.81
39789;BME280;25478;42.626;23.320;2022-09-23T06:56:09;93370.22;;;10.12;69.58
39789;BME280;25478;42.626;23.320;2022-09-23T06:58:35;93342.28;;;9.97;69.99
39789;BME280;25478;42.626;23.320;2022-09-23T07:01:11;93366.53;;;10.21;70.13
39789;BME280;25478;42.626;23.320;2022-09-23T07:03:37;93370.72;;;10.25;70.08
39789;BME280;25478;42.626;23.320;2022-09-23T07:06:04;93365.13;;;10.30;69.01
39789;BME280;25478;42.626;23.320;2022-09-23T07:08:31;93363.56;;;10.22;69.01
39789;BME280;25478;42.626;23.320;2022-09-23T07:11:03;93384.00;;;10.39;68.85
39789;BME280;25478;42.626;23.320;2022-09-23T07:13:29;93376.97;;;10.54;68.75
39789;BME280;25478;42.626;23.320;2022-09-23T07:15:57;93389.09;;;10.69;68.49
39789;BME280;25478;42.626;23.320;2022-09-23T07:18:25;93378.25;;;10.78;67.81
39789;BME280;25478;42.626;23.320;2022-09-23T07:20:52;93379.44;;;10.88;66.86
39789;BME280;25478;42.626;23.320;2022-09-23T07:23:18;93379.00;;;10.82;66.87
39789;BME280;25478;42.626;23.320;2022-09-23T07:25:44;93378.25;;;10.82;66.36
39789;BME280;25478;42.626;23.320;2022-09-23T07:28:11;93379.78;;;10.83;65.41
39789;BME280;25478;42.626;23.320;2022-09-23T07:30:38;93383.88;;;10.77;66.07
39789;BME280;25478;42.626;23.320;2022-09-23T07:33:04;93389.88;;;10.74;66.07
39789;BME280;25478;42.626;23.320;2022-09-23T07:35:30;93389.09;;;10.69;66.28
39789;BME280;25478;42.626;23.320;2022-09-23T07:37:55;93390.97;;;10.69;66.45
39789;BME280;25478;42.626;23.320;2022-09-23T07:40:21;93395.56;;;10.79;66.07
39789;BME280;25478;42.626;23.320;2022-09-23T07:42:47;93402.75;;;10.89;66.08
39789;BME280;25478;42.626;23.320;2022-09-23T07:45:13;93400.13;;;10.89;66.33
39789;BME280;25478;42.626;23.320;2022-09-23T07:47:39;93385.03;;;10.83;66.82
39789;BME280;25478;42.626;23.320;2022-09-23T07:50:07;93391.47;;;10.92;66.85
39789;BME280;25478;42.626;23.320;2022-09-23T07:52:36;93405.41;;;10.89;66.97
39789;BME280;25478;42.626;23.320;2022-09-23T07:55:05;93409.25;;;11.03;66.64
39789;BME280;25478;42.626;23.320;2022-09-23T07:57:32;93384.75;;;10.95;66.24
39789;BME280;25478;42.626;23.320;2022-09-23T07:59:58;93399.84;;;11.09;66.58
39789;BME280;25478;42.626;23.320;2022-09-23T08:02:24;93400.66;;;11.13;65.66
39789;BME280;25478;42.626;23.320;2022-09-23T08:04:50;93405.06;;;10.98;64.75
39789;BME280;25478;42.626;23.320;2022-09-23T08:07:15;93403.53;;;10.90;65.54
39789;BME280;25478;42.626;23.320;2022-09-23T08:09:42;93417.81;;;10.85;65.26
39789;BME280;25478;42.626;23.320;2022-09-23T08:12:10;93415.56;;;10.87;65.65
39789;BME280;25478;42.626;23.320;2022-09-23T08:14:36;93414.44;;;10.88;65.99
39789;BME280;25478;42.626;23.320;2022-09-23T08:17:03;93405.06;;;10.94;66.00
39789;BME280;25478;42.626;23.320;2022-09-23T08:19:29;93405.13;;;11.02;65.69
39789;BME280;25478;42.626;23.320;2022-09-23T08:21:54;93401.78;;;11.12;65.41
39789;BME280;25478;42.626;23.320;2022-09-23T08:24:22;93411.22;;;11.20;64.74
39789;BME280;25478;42.626;23.320;2022-09-23T08:26:49;93400.28;;;11.11;63.95
39789;BME280;25478;42.626;23.320;2022-09-23T08:29:20;93403.63;;;11.08;64.44
39789;BME280;25478;42.626;23.320;2022-09-23T08:31:46;93398.38;;;11.11;64.04
39789;BME280;25478;42.626;23.320;2022-09-23T08:34:15;93334.16;;;10.64;63.90
39789;BME280;25478;42.626;23.320;2022-09-23T08:36:41;93378.38;;;10.99;64.19
39789;BME280;25478;42.626;23.320;2022-09-23T08:39:06;93398.44;;;11.18;62.97
39789;BME280;25478;42.626;23.320;2022-09-23T08:44:46;93400.31;;;11.25;62.52
39789;BME280;25478;42.626;23.320;2022-09-23T08:50:10;93389.09;;;11.35;61.34
39789;BME280;25478;42.626;23.320;2022-09-23T08:55:15;93393.66;;;11.45;61.19
39789;BME280;25478;42.626;23.320;2022-09-23T09:03:49;93394.78;;;11.44;61.20
39789;BME280;25478;42.626;23.320;2022-09-23T09:06:50;93390.59;;;11.43;61.54
39789;BME280;25478;42.626;23.320;2022-09-23T09:09:29;93383.88;;;11.53;61.32
39789;BME280;25478;42.626;23.320;2022-09-23T09:15:06;93382.41;;;11.63;60.23
39789;BME280;25478;42.626;23.320;2022-09-23T09:17:47;93382.78;;;11.65;59.72
39789;BME280;25478;42.626;23.320;2022-09-23T09:20:22;93394.88;;;11.76;58.43
39789;BME280;25478;42.626;23.320;2022-09-23T09:28:03;93400.97;;;11.88;58.06
39789;BME280;25478;42.626;23.320;2022-09-23T09:30:35;93390.44;;;11.95;57.59
39789;BME280;25478;42.626;23.320;2022-09-23T09:33:02;93390.44;;;11.98;57.73
39789;BME280;25478;42.626;23.320;2022-09-23T09:35:39;93393.84;;;12.09;56.95
39789;BME280;25478;42.626;23.320;2022-09-23T09:38:06;93395.34;;;12.18;57.42
39789;BME280;25478;42.626;23.320;2022-09-23T09:40:33;93402.94;;;12.37;56.15
39789;BME280;25478;42.626;23.320;2022-09-23T09:43:00;93391.63;;;12.47;56.02
39789;BME280;25478;42.626;23.320;2022-09-23T09:46:05;93391.22;;;12.59;55.73
39789;BME280;25478;42.626;23.320;2022-09-23T09:48:55;93393.88;;;12.70;55.09
39789;BME280;25478;42.626;23.320;2022-09-23T09:51:26;93385.94;;;12.81;54.62
39789;BME280;25478;42.626;23.320;2022-09-23T09:53:53;93368.56;;;12.83;54.35
39789;BME280;25478;42.626;23.320;2022-09-23T09:56:24;93370.03;;;13.02;53.51
39789;BME280;25478;42.626;23.320;2022-09-23T09:59:08;93393.81;;;13.20;52.77
39789;BME280;25478;42.626;23.320;2022-09-23T10:01:37;93388.16;;;13.21;52.68
39789;BME280;25478;42.626;23.320;2022-09-23T10:04:05;93391.16;;;13.20;52.83
39789;BME280;25478;42.626;23.320;2022-09-23T10:06:32;93402.09;;;13.18;52.58
39789;BME280;25478;42.626;23.320;2022-09-23T10:11:32;93384.03;;;12.92;53.12
39789;BME280;25478;42.626;23.320;2022-09-23T10:14:16;93385.91;;;12.99;52.95
39789;BME280;25478;42.626;23.320;2022-09-23T10:16:43;93367.78;;;12.93;52.21
39789;BME280;25478;42.626;23.320;2022-09-23T10:21:40;93379.53;;;12.82;51.71
39789;BME280;25478;42.626;23.320;2022-09-23T10:24:07;93362.56;;;12.79;51.78
39789;BME280;25478;42.626;23.320;2022-09-23T10:26:42;93377.63;;;12.96;51.25
39789;BME280;25478;42.626;23.320;2022-09-23T10:32:23;93379.09;;;13.12;50.85
39789;BME280;25478;42.626;23.320;2022-09-23T10:37:30;93372.34;;;12.75;51.56
39789;BME280;25478;42.626;23.320;2022-09-23T10:39:56;93368.97;;;12.71;50.95
39789;BME280;25478;42.626;23.320;2022-09-23T10:45:47;93363.22;;;13.15;49.43
39789;BME280;25478;42.626;23.320;2022-09-23T10:48:45;93376.34;;;13.44;49.34
39789;BME280;25478;42.626;23.320;2022-09-23T10:51:47;93366.06;;;13.71;49.12
39789;BME280;25478;42.626;23.320;2022-09-23T11:00:20;93368.56;;;13.92;46.84
39789;BME280;25478;42.626;23.320;2022-09-23T11:06:02;93368.97;;;13.87;46.07
39789;BME280;25478;42.626;23.320;2022-09-23T11:08:55;93358.41;;;13.84;46.56
39789;BME280;25478;42.626;23.320;2022-09-23T11:25:01;93340.69;;;13.80;47.94
39789;BME280;25478;42.626;23.320;2022-09-23T11:28:12;93353.00;;;14.05;46.68
39789;BME280;25478;42.626;23.320;2022-09-23T11:36:01;93338.09;;;14.25;46.33
39789;BME280;25478;42.626;23.320;2022-09-23T11:38:38;93340.66;;;14.40;45.55
39789;BME280;25478;42.626;23.320;2022-09-23T11:41:22;93338.41;;;14.38;44.80
39789;BME280;25478;42.626;23.320;2022-09-23T11:46:41;93340.50;;;14.61;44.21
39789;BME280;25478;42.626;23.320;2022-09-23T11:49:20;93334.72;;;14.73;44.17
39789;BME280;25478;42.626;23.320;2022-09-23T11:54:31;93319.31;;;14.99;43.47
39789;BME280;25478;42.626;23.320;2022-09-23T11:57:02;93326.34;;;15.12;42.53
39789;BME280;25478;42.626;23.320;2022-09-23T11:59:51;93321.03;;;15.16;42.28
39789;BME280;25478;42.626;23.320;2022-09-23T12:02:41;93297.31;;;15.02;41.23
39789;BME280;25478;42.626;23.320;2022-09-23T12:05:19;93327.09;;;15.13;40.54
39789;BME280;25478;42.626;23.320;2022-09-23T12:10:20;93325.28;;;15.06;40.03
39789;BME280;25478;42.626;23.320;2022-09-23T12:13:06;93321.84;;;15.09;40.10
39789;BME280;25478;42.626;23.320;2022-09-23T12:26:42;93307.88;;;14.68;39.34
39789;BME280;25478;42.626;23.320;2022-09-23T12:29:12;93303.25;;;14.75;40.04
39789;BME280;25478;42.626;23.320;2022-09-23T12:31:40;93282.78;;;14.79;39.70
39789;BME280;25478;42.626;23.320;2022-09-23T12:34:36;93299.81;;;15.16;39.48
39789;BME280;25478;42.626;23.320;2022-09-23T12:37:04;93283.81;;;15.23;40.27
39789;BME280;25478;42.626;23.320;2022-09-23T12:39:35;93300.09;;;15.56;40.85
39789;BME280;25478;42.626;23.320;2022-09-23T12:42:14;93290.72;;;15.47;42.03
39789;BME280;25478;42.626;23.320;2022-09-23T12:44:42;93299.13;;;15.08;43.37
39789;BME280;25478;42.626;23.320;2022-09-23T12:49:46;93303.13;;;14.45;45.51
39789;BME280;25478;42.626;23.320;2022-09-23T12:52:28;93303.66;;;14.29;46.21
39789;BME280;25478;42.626;23.320;2022-09-23T12:55:41;93303.78;;;14.15;46.53
39789;BME280;25478;42.626;23.320;2022-09-23T12:57:43;93314.50;;;13.93;46.81
39789;BME280;25478;42.626;23.320;2022-09-23T13:00:22;93320.25;;;13.81;47.17
39789;BME280;25478;42.626;23.320;2022-09-23T13:05:51;93324.19;;;13.55;47.60
39789;BME280;25478;42.626;23.320;2022-09-23T13:08:40;93325.06;;;13.31;48.34
39789;BME280;25478;42.626;23.320;2022-09-23T13:11:23;93316.78;;;13.11;48.68
39789;BME280;25478;42.626;23.320;2022-09-23T13:13:50;93328.56;;;12.95;49.37
39789;BME280;25478;42.626;23.320;2022-09-23T13:21:24;93325.19;;;12.74;50.39
39789;BME280;25478;42.626;23.320;2022-09-23T13:24:16;93323.31;;;12.63;50.54
39789;BME280;25478;42.626;23.320;2022-09-23T13:26:45;93328.59;;;12.67;50.62
39789;BME280;25478;42.626;23.320;2022-09-23T13:29:26;93331.59;;;12.76;50.51
39789;BME280;25478;42.626;23.320;2022-09-23T13:31:54;93328.94;;;12.90;50.34
39789;BME280;25478;42.626;23.320;2022-09-23T13:34:25;93330.78;;;13.04;50.23
39789;BME280;25478;42.626;23.320;2022-09-23T13:36:51;93325.06;;;13.16;50.00
39789;BME280;25478;42.626;23.320;2022-09-23T13:39:27;93325.41;;;13.40;49.31
39789;BME280;25478;42.626;23.320;2022-09-23T13:42:01;93315.50;;;13.55;49.15
39789;BME280;25478;42.626;23.320;2022-09-23T13:44:29;93318.09;;;13.65;48.69
39789;BME280;25478;42.626;23.320;2022-09-23T13:46:57;93318.00;;;13.79;48.53
39789;BME280;25478;42.626;23.320;2022-09-23T13:49:26;93317.53;;;13.92;48.45
39789;BME280;25478;42.626;23.320;2022-09-23T13:51:53;93322.00;;;14.02;48.49
39789;BME280;25478;42.626;23.320;2022-09-23T13:56:53;93308.31;;;14.14;47.17
39789;BME280;25478;42.626;23.320;2022-09-23T13:59:29;93307.50;;;14.21;46.93
39789;BME280;25478;42.626;23.320;2022-09-23T14:02:21;93305.63;;;14.21;46.68
39789;BME280;25478;42.626;23.320;2022-09-23T14:04:50;93310.25;;;14.06;47.07
39789;BME280;25478;42.626;23.320;2022-09-23T14:07:17;93296.72;;;13.94;47.48
39789;BME280;25478;42.626;23.320;2022-09-23T14:09:46;93312.91;;;14.06;47.45
39789;BME280;25478;42.626;23.320;2022-09-23T14:12:13;93308.72;;;14.09;47.69
39789;BME280;25478;42.626;23.320;2022-09-23T14:14:40;93303.78;;;14.15;48.00
39789;BME280;25478;42.626;23.320;2022-09-23T14:17:07;93297.28;;;14.23;47.74
39789;BME280;25478;42.626;23.320;2022-09-23T14:19:35;93302.47;;;14.33;48.24
39789;BME280;25478;42.626;23.320;2022-09-23T14:22:01;93290.66;;;14.45;47.88
39789;BME280;25478;42.626;23.320;2022-09-23T14:24:35;93284.91;;;14.57;47.98
39789;BME280;25478;42.626;23.320;2022-09-23T14:27:13;93292.78;;;14.64;47.93
39789;BME280;25478;42.626;23.320;2022-09-23T14:29:42;93296.13;;;14.69;47.35
39789;BME280;25478;42.626;23.320;2022-09-23T14:32:15;93294.63;;;14.68;47.24
39789;BME280;25478;42.626;23.320;2022-09-23T14:37:19;93296.25;;;14.54;47.00
39789;BME280;25478;42.626;23.320;2022-09-23T14:40:10;93294.91;;;14.35;47.81
39789;BME280;25478;42.626;23.320;2022-09-23T14:42:39;93292.75;;;14.20;48.04
39789;BME280;25478;42.626;23.320;2022-09-23T14:45:11;93294.78;;;14.01;48.74
39789;BME280;25478;42.626;23.320;2022-09-23T14:47:42;93291.53;;;13.83;49.01
39789;BME280;25478;42.626;23.320;2022-09-23T14:50:21;93291.22;;;13.70;49.15
39789;BME280;25478;42.626;23.320;2022-09-23T14:55:55;93290.53;;;13.63;49.40
39789;BME280;25478;42.626;23.320;2022-09-23T14:58:52;93286.34;;;13.62;49.37
39789;BME280;25478;42.626;23.320;2022-09-23T15:04:42;93278.81;;;13.60;50.20
39789;BME280;25478;42.626;23.320;2022-09-23T15:06:48;93281.84;;;13.59;50.43
39789;BME280;25478;42.626;23.320;2022-09-23T15:09:38;93283.69;;;13.62;50.44
39789;BME280;25478;42.626;23.320;2022-09-23T15:12:10;93284.47;;;13.62;50.05
39789;BME280;25478;42.626;23.320;2022-09-23T15:14:39;93288.63;;;13.60;49.62
39789;BME280;25478;42.626;23.320;2022-09-23T15:17:12;93292.81;;;13.53;49.31
39789;BME280;25478;42.626;23.320;2022-09-23T15:19:38;93297.84;;;13.34;49.93
39789;BME280;25478;42.626;23.320;2022-09-23T15:22:06;93294.47;;;13.30;48.81
39789;BME280;25478;42.626;23.320;2022-09-23T15:24:36;93293.72;;;13.26;48.97
39789;BME280;25478;42.626;23.320;2022-09-23T15:27:09;93296.78;;;13.20;49.24
39789;BME280;25478;42.626;23.320;2022-09-23T15:29:35;93294.88;;;13.14;49.90
39789;BME280;25478;42.626;23.320;2022-09-23T15:32:00;93306.59;;;13.09;49.38
39789;BME280;25478;42.626;23.320;2022-09-23T15:34:26;93304.00;;;12.99;49.25
39789;BME280;25478;42.626;23.320;2022-09-23T15:36:51;93298.72;;;12.95;49.78
39789;BME280;25478;42.626;23.320;2022-09-23T15:39:18;93288.19;;;12.81;50.82
39789;BME280;25478;42.626;23.320;2022-09-23T15:41:44;93304.75;;;12.92;50.26
39789;BME280;25478;42.626;23.320;2022-09-23T15:44:20;93310.03;;;12.92;50.41
39789;BME280;25478;42.626;23.320;2022-09-23T15:46:52;93308.94;;;12.89;49.71